createdAt,value
2022-10-15T00:01:51.088Z,14.70
2022-10-15T00:04:19.351Z,14.70
2022-10-15T00:06:47.465Z,14.70
2022-10-15T00:09:15.647Z,14.70
2022-10-15T00:11:43.904Z,14.70
2022-10-15T00:14:12.065Z,14.70
2022-10-15T00:16:41.606Z,14.70
2022-10-15T00:19:11.403Z,14.70
2022-10-15T00:21:40.263Z,14.70
2022-10-15T00:24:10.807Z,14.70
2022-10-15T00:26:39.105Z,14.70
2022-10-15T00:29:07.418Z,14.70
2022-10-15T00:31:35.781Z,14.70
2022-10-15T00:34:05.391Z,14.70
2022-10-15T00:36:37.247Z,14.70
2022-10-15T00:39:08.293Z,14.70
2022-10-15T00:41:40.941Z,14.70
2022-10-15T00:44:50.840Z,14.70
2022-10-15T00:47:26.185Z,14.70
2022-10-15T00:50:05.748Z,14.70
2022-10-15T00:52:46.015Z,14.70
2022-10-15T00:55:20.350Z,14.70
2022-10-15T00:57:51.203Z,14.70
2022-10-15T01:00:20.885Z,14.70
2022-10-15T01:02:49.382Z,14.70
2022-10-15T01:05:21.126Z,14.70
2022-10-15T01:07:49.235Z,14.60
2022-10-15T01:10:20.230Z,14.60
2022-10-15T01:13:13.918Z,14.60
2022-10-15T01:15:52.140Z,14.60
2022-10-15T01:18:28.548Z,14.60
2022-10-15T01:21:10.045Z,14.50
2022-10-15T01:24:39.377Z,14.50
2022-10-15T01:27:35.785Z,14.60
2022-10-15T01:30:25.889Z,14.50
2022-10-15T01:33:23.854Z,14.50
2022-10-15T01:35:55.954Z,14.50
2022-10-15T01:38:40.999Z,14.50
2022-10-15T01:41:15.047Z,14.50
2022-10-15T01:43:49.430Z,14.60
2022-10-15T01:46:46.344Z,14.50
2022-10-15T01:49:26.314Z,14.60
2022-10-15T01:51:57.328Z,14.50
2022-10-15T01:54:28.966Z,14.50
2022-10-15T01:57:00.625Z,14.50
2022-10-15T01:59:34.583Z,14.50
2022-10-15T02:02:04.336Z,14.50
2022-10-15T02:04:33.823Z,14.50
2022-10-15T02:07:07.552Z,14.40
2022-10-15T02:09:49.748Z,14.50
2022-10-15T02:12:38.624Z,14.40
2022-10-15T02:15:17.944Z,14.40
2022-10-15T02:18:03.266Z,14.30
2022-10-15T02:20:41.480Z,14.40
2022-10-15T02:23:18.304Z,14.30
2022-10-15T02:25:49.666Z,14.30
2022-10-15T02:28:20.324Z,14.30
2022-10-15T02:30:53.145Z,14.20
2022-10-15T02:33:25.419Z,14.20
2022-10-15T02:35:56.019Z,14.20
2022-10-15T02:38:28.593Z,14.20
2022-10-15T02:40:59.183Z,14.20
2022-10-15T02:43:27.849Z,14.20
2022-10-15T02:45:57.516Z,14.20
2022-10-15T02:48:28.494Z,14.10
2022-10-15T02:50:56.678Z,14.10
2022-10-15T02:53:24.871Z,14.10
2022-10-15T02:55:53.068Z,14.10
2022-10-15T02:58:21.570Z,14.00
2022-10-15T03:00:50.655Z,14.00
2022-10-15T03:03:19.051Z,13.90
2022-10-15T03:05:48.732Z,13.90
2022-10-15T03:08:17.886Z,13.90
2022-10-15T03:10:46.751Z,13.90
2022-10-15T03:13:15.243Z,13.80
2022-10-15T03:15:49.442Z,13.80
2022-10-15T03:18:17.706Z,13.70
2022-10-15T03:20:47.314Z,13.80
2022-10-15T03:23:17.788Z,13.70
2022-10-15T03:25:46.649Z,13.70
2022-10-15T03:28:19.995Z,13.60
2022-10-15T03:30:48.854Z,13.60
2022-10-15T03:33:19.841Z,13.60
2022-10-15T03:35:50.120Z,13.50
2022-10-15T03:38:20.156Z,13.40
2022-10-15T03:40:49.810Z,13.40
2022-10-15T03:43:30.993Z,13.40
2022-10-15T03:46:04.205Z,13.30
2022-10-15T03:48:34.734Z,13.30
2022-10-15T03:51:02.945Z,13.30
2022-10-15T03:53:32.889Z,13.30
2022-10-15T03:56:05.563Z,13.30
2022-10-15T03:58:34.847Z,13.40
2022-10-15T04:01:10.784Z,13.40
2022-10-15T04:03:40.197Z,13.30
2022-10-15T04:06:09.883Z,13.30
2022-10-15T04:08:40.633Z,13.30
2022-10-15T04:11:21.241Z,13.30
2022-10-15T04:13:58.224Z,13.40
2022-10-15T04:16:26.667Z,13.40
2022-10-15T04:18:55.621Z,13.40
2022-10-15T04:21:23.855Z,13.40
2022-10-15T04:23:58.861Z,13.40
2022-10-15T04:26:34.592Z,13.40
2022-10-15T04:29:03.096Z,13.40
2022-10-15T04:31:32.176Z,13.40
2022-10-15T04:34:01.105Z,13.40
2022-10-15T04:36:29.839Z,13.40
2022-10-15T04:39:06.914Z,13.40
2022-10-15T04:41:40.310Z,13.30
2022-10-15T04:44:14.697Z,13.30
2022-10-15T04:46:47.754Z,13.30
2022-10-15T04:49:33.287Z,13.30
2022-10-15T04:52:04.432Z,13.30
2022-10-15T04:54:43.910Z,13.30
2022-10-15T04:57:13.003Z,13.30
2022-10-15T04:59:41.907Z,13.30
2022-10-15T05:02:34.927Z,13.30
2022-10-15T05:05:20.552Z,13.30
2022-10-15T05:07:54.426Z,13.30
2022-10-15T05:10:24.574Z,13.30
2022-10-15T05:12:55.900Z,13.30
2022-10-15T05:15:31.261Z,13.30
2022-10-15T05:17:59.466Z,13.30
2022-10-15T05:20:36.224Z,13.30
2022-10-15T05:23:06.263Z,13.30
2022-10-15T05:25:37.630Z,13.30
2022-10-15T05:28:06.161Z,13.30
2022-10-15T05:30:35.968Z,13.30
2022-10-15T05:33:05.148Z,13.30
2022-10-15T05:35:33.277Z,13.30
2022-10-15T05:38:04.372Z,13.30
2022-10-15T05:40:32.830Z,13.30
2022-10-15T05:43:21.836Z,13.20
2022-10-15T05:45:50.596Z,13.20
2022-10-15T05:48:19.798Z,13.20
2022-10-15T05:50:48.774Z,13.20
2022-10-15T05:53:23.886Z,13.20
2022-10-15T05:56:03.621Z,13.20
2022-10-15T05:58:37.471Z,13.20
2022-10-15T06:01:09.362Z,13.10
2022-10-15T06:03:41.378Z,13.10
2022-10-15T06:06:17.455Z,13.20
2022-10-15T06:08:45.995Z,13.20
2022-10-15T06:11:15.053Z,13.20
2022-10-15T06:13:46.075Z,13.10
2022-10-15T06:16:19.343Z,13.10
2022-10-15T06:18:52.627Z,13.20
2022-10-15T06:21:20.985Z,13.20
2022-10-15T06:23:49.159Z,13.20
2022-10-15T06:26:17.968Z,13.20
2022-10-15T06:28:50.743Z,13.20
2022-10-15T06:31:19.149Z,13.20
2022-10-15T06:33:47.557Z,13.20
2022-10-15T06:36:15.652Z,13.20
2022-10-15T06:38:44.662Z,13.20
2022-10-15T06:41:13.042Z,13.20
2022-10-15T06:43:41.461Z,13.20
2022-10-15T06:46:12.568Z,13.30
2022-10-15T06:48:40.747Z,13.20
2022-10-15T06:51:08.844Z,13.10
2022-10-15T06:53:40.440Z,13.20
2022-10-15T06:56:08.958Z,13.30
2022-10-15T06:58:42.591Z,13.30
2022-10-15T07:01:12.157Z,13.30
2022-10-15T07:03:40.276Z,13.30
2022-10-15T07:06:10.594Z,13.20
2022-10-15T07:08:38.796Z,13.30
2022-10-15T07:11:10.599Z,13.30
2022-10-15T07:13:40.167Z,13.30
2022-10-15T07:16:13.698Z,13.40
2022-10-15T07:18:41.807Z,13.40
2022-10-15T07:23:44.359Z,13.40
2022-10-15T07:26:12.833Z,13.30
2022-10-15T07:28:41.318Z,13.30
2022-10-15T07:31:11.280Z,13.40
2022-10-15T07:33:39.758Z,13.40
2022-10-15T07:36:11.098Z,13.40
2022-10-15T07:38:41.035Z,13.50
2022-10-15T07:41:11.802Z,13.50
2022-10-15T07:43:44.452Z,13.60
2022-10-15T07:46:14.115Z,13.60
2022-10-15T07:48:42.161Z,13.70
2022-10-15T07:51:13.003Z,13.70
2022-10-15T07:53:41.229Z,13.70
2022-10-15T07:56:14.273Z,13.80
2022-10-15T07:58:43.136Z,13.80
2022-10-15T08:01:13.180Z,13.80
2022-10-15T08:03:41.212Z,13.90
2022-10-15T08:06:09.661Z,13.90
2022-10-15T08:08:38.545Z,14.00
2022-10-15T08:11:08.179Z,14.10
2022-10-15T08:13:36.477Z,14.20
2022-10-15T08:16:05.269Z,14.20
2022-10-15T08:18:34.760Z,14.20
2022-10-15T08:21:03.256Z,14.20
2022-10-15T08:23:31.501Z,14.20
2022-10-15T08:26:00.541Z,14.20
2022-10-15T08:28:29.424Z,14.20
2022-10-15T08:31:02.689Z,14.20
2022-10-15T08:33:35.966Z,14.20
2022-10-15T08:36:06.255Z,14.20
2022-10-15T08:38:35.651Z,14.20
2022-10-15T08:41:16.739Z,14.30
2022-10-15T08:43:48.333Z,14.40
2022-10-15T08:46:24.604Z,14.50
2022-10-15T08:48:57.230Z,14.70
2022-10-15T08:51:31.614Z,14.70
2022-10-15T08:54:05.397Z,14.70
2022-10-15T08:56:39.367Z,14.80
2022-10-15T08:59:21.776Z,14.90
2022-10-15T09:01:56.507Z,15.00
2022-10-15T09:04:35.256Z,15.10
2022-10-15T09:07:13.730Z,15.20
2022-10-15T09:09:50.027Z,15.30
2022-10-15T09:12:41.908Z,15.40
2022-10-15T09:15:16.036Z,15.60
2022-10-15T09:17:49.092Z,15.70
2022-10-15T09:20:31.023Z,15.80
2022-10-15T09:22:59.445Z,15.70
2022-10-15T09:25:37.176Z,15.50
2022-10-15T09:28:12.268Z,15.40
2022-10-15T09:30:48.737Z,15.40
2022-10-15T09:33:30.545Z,15.50
2022-10-15T09:36:33.414Z,15.60
2022-10-15T09:39:32.648Z,15.70
2022-10-15T09:42:20.111Z,15.70
2022-10-15T09:44:49.266Z,15.80
2022-10-15T09:47:24.715Z,15.80
2022-10-15T09:49:56.777Z,16.00
2022-10-15T09:52:45.623Z,16.10
2022-10-15T09:55:35.188Z,16.20
2022-10-15T09:58:09.539Z,16.30
2022-10-15T10:00:58.114Z,16.40
2022-10-15T10:03:30.021Z,16.60
2022-10-15T10:06:04.608Z,16.70
2022-10-15T10:08:50.546Z,16.80
2022-10-15T10:11:22.783Z,16.90
2022-10-15T10:13:57.861Z,16.90
2022-10-15T10:16:30.091Z,16.90
2022-10-15T10:19:12.850Z,16.90
2022-10-15T10:21:43.464Z,16.90
2022-10-15T10:24:30.555Z,16.90
2022-10-15T10:26:59.787Z,17.00
2022-10-15T10:29:34.788Z,17.00
2022-10-15T10:32:18.206Z,17.10
2022-10-15T10:34:51.507Z,17.20
2022-10-15T10:37:21.571Z,17.30
2022-10-15T10:39:57.129Z,17.40
2022-10-15T10:42:34.557Z,17.50
2022-10-15T10:47:52.562Z,17.70
2022-10-15T10:50:32.411Z,17.60
2022-10-15T10:53:22.403Z,17.50
2022-10-15T10:55:56.127Z,17.40
2022-10-15T10:58:32.300Z,17.20
2022-10-15T11:01:00.540Z,17.20
2022-10-15T11:03:37.840Z,17.10
2022-10-15T11:06:25.661Z,17.20
2022-10-15T11:09:13.966Z,17.30
2022-10-15T11:12:02.234Z,17.50
2022-10-15T11:14:45.840Z,17.40
2022-10-15T11:17:25.620Z,17.40
2022-10-15T11:20:25.655Z,17.40
2022-10-15T11:23:09.428Z,17.40
2022-10-15T11:25:50.561Z,17.50
2022-10-15T11:28:38.706Z,17.50
2022-10-15T11:34:11.876Z,17.40
2022-10-15T11:36:59.679Z,17.40
2022-10-15T11:40:02.717Z,17.70
2022-10-15T11:42:38.419Z,17.90
2022-10-15T11:45:43.504Z,17.90
2022-10-15T11:48:23.327Z,17.90
2022-10-15T11:50:57.574Z,17.80
2022-10-15T11:53:52.127Z,17.90
2022-10-15T11:56:26.583Z,18.00
2022-10-15T11:59:03.916Z,18.00
2022-10-15T12:01:40.174Z,18.00
2022-10-15T12:04:17.312Z,17.80
2022-10-15T12:06:53.856Z,17.80
2022-10-15T12:09:29.608Z,17.80
2022-10-15T12:12:11.077Z,17.50
2022-10-15T12:14:51.663Z,17.60
2022-10-15T12:17:32.006Z,17.70
2022-10-15T12:20:09.644Z,17.70
2022-10-15T12:22:57.085Z,17.60
2022-10-15T12:25:47.309Z,17.80
2022-10-15T12:28:21.708Z,17.80
2022-10-15T12:31:02.109Z,17.80
2022-10-15T12:33:46.702Z,17.80
2022-10-15T12:36:28.209Z,17.80
2022-10-15T12:39:00.704Z,17.80
2022-10-15T12:41:43.352Z,17.90
2022-10-15T12:44:23.005Z,17.80
2022-10-15T12:46:53.173Z,17.80
2022-10-15T12:49:55.829Z,17.80
2022-10-15T12:52:58.057Z,17.70
2022-10-15T12:55:33.361Z,17.60
2022-10-15T12:58:27.947Z,17.50
2022-10-15T13:00:56.166Z,17.60
2022-10-15T13:03:37.514Z,17.50
2022-10-15T13:06:35.622Z,17.60
2022-10-15T13:09:24.883Z,17.60
2022-10-15T13:11:55.688Z,17.60
2022-10-15T13:14:33.408Z,17.60
2022-10-15T13:17:07.184Z,17.60
2022-10-15T13:19:41.106Z,17.60
2022-10-15T13:22:24.703Z,17.60
2022-10-15T13:24:55.625Z,17.60
2022-10-15T13:27:26.277Z,17.60
2022-10-15T13:29:57.406Z,17.50
2022-10-15T13:32:28.473Z,17.50
2022-10-15T13:34:58.417Z,17.60
2022-10-15T13:37:33.594Z,17.60
2022-10-15T13:40:07.619Z,17.50
2022-10-15T13:42:37.204Z,17.50
2022-10-15T13:45:18.168Z,17.50
2022-10-15T13:47:51.052Z,17.60
2022-10-15T13:50:24.030Z,17.50
2022-10-15T13:52:59.284Z,17.50
2022-10-15T13:55:31.382Z,17.40
2022-10-15T13:58:04.268Z,17.50
2022-10-15T14:00:36.778Z,17.60
2022-10-15T14:03:18.489Z,17.70
2022-10-15T14:05:49.116Z,17.80
2022-10-15T14:08:26.425Z,17.80
2022-10-15T14:10:59.057Z,17.90
2022-10-15T14:13:28.576Z,17.70
2022-10-15T14:16:16.451Z,17.80
2022-10-15T14:18:49.422Z,17.80
2022-10-15T14:21:21.554Z,17.70
2022-10-15T14:23:51.444Z,17.70
2022-10-15T14:26:25.658Z,17.70
2022-10-15T14:28:55.875Z,17.60
2022-10-15T14:31:33.648Z,17.60
2022-10-15T14:34:02.172Z,17.50
2022-10-15T14:36:41.602Z,17.40
2022-10-15T14:39:30.689Z,17.40
2022-10-15T14:42:01.554Z,17.50
2022-10-15T14:44:46.618Z,17.40
2022-10-15T14:47:23.814Z,17.50
2022-10-15T14:49:57.197Z,17.50
2022-10-15T14:52:25.667Z,17.40
2022-10-15T14:55:08.183Z,17.40
2022-10-15T14:57:42.512Z,17.50
2022-10-15T15:00:22.815Z,17.40
2022-10-15T15:02:51.710Z,17.30
2022-10-15T15:05:23.774Z,17.20
2022-10-15T15:07:52.656Z,17.20
2022-10-15T15:10:22.393Z,17.20
2022-10-15T15:12:53.969Z,17.20
2022-10-15T15:15:25.895Z,17.20
2022-10-15T15:17:54.309Z,17.20
2022-10-15T15:20:24.155Z,17.20
2022-10-15T15:22:55.584Z,17.20
2022-10-15T15:25:33.637Z,17.30
2022-10-15T15:28:02.168Z,17.30
2022-10-15T15:30:32.718Z,17.30
2022-10-15T15:33:02.023Z,17.30
2022-10-15T15:35:37.929Z,17.30
2022-10-15T15:38:08.583Z,17.30
2022-10-15T15:40:38.195Z,17.20
2022-10-15T15:43:06.347Z,17.10
2022-10-15T15:45:34.772Z,17.10
2022-10-15T15:48:03.625Z,17.10
2022-10-15T15:50:32.612Z,17.00
2022-10-15T15:53:01.225Z,17.00
2022-10-15T15:55:30.533Z,17.00
2022-10-15T15:57:59.992Z,16.90
2022-10-15T16:00:28.244Z,16.90
2022-10-15T16:02:57.964Z,16.80
2022-10-15T16:05:26.788Z,16.80
2022-10-15T16:07:55.141Z,16.70
2022-10-15T16:10:23.665Z,16.60
2022-10-15T16:12:51.809Z,16.60
2022-10-15T16:15:21.387Z,16.60
2022-10-15T16:17:49.522Z,16.50
2022-10-15T16:20:17.825Z,16.40
2022-10-15T16:22:46.014Z,16.40
2022-10-15T16:25:15.100Z,16.30
2022-10-15T16:27:45.464Z,16.30
2022-10-15T16:30:13.571Z,16.30
2022-10-15T16:32:43.007Z,16.30
2022-10-15T16:35:11.527Z,16.30
2022-10-15T16:37:39.790Z,16.30
2022-10-15T16:40:09.972Z,16.20
2022-10-15T16:42:38.134Z,16.30
2022-10-15T16:45:07.606Z,16.20
2022-10-15T16:47:35.862Z,16.20
2022-10-15T16:50:07.084Z,16.40
2022-10-15T16:52:35.697Z,16.40
2022-10-15T16:55:03.866Z,16.30
2022-10-15T16:57:32.111Z,16.30
2022-10-15T17:00:00.641Z,16.20
2022-10-15T17:02:28.847Z,16.20
2022-10-15T17:04:56.996Z,16.30
2022-10-15T17:07:26.899Z,16.20
2022-10-15T17:09:55.213Z,16.20
2022-10-15T17:12:23.858Z,16.20
2022-10-15T17:14:52.754Z,16.10
2022-10-15T17:17:21.291Z,16.10
2022-10-15T17:19:49.498Z,16.00
2022-10-15T17:22:17.592Z,16.10
2022-10-15T17:24:47.389Z,16.10
2022-10-15T17:27:15.568Z,16.10
2022-10-15T17:29:44.585Z,16.00
2022-10-15T17:32:12.724Z,16.00
2022-10-15T17:34:40.998Z,16.00
2022-10-15T17:37:09.579Z,16.10
2022-10-15T17:39:37.859Z,16.10
2022-10-15T17:42:07.393Z,16.10
2022-10-15T17:44:35.461Z,16.10
2022-10-15T17:47:03.514Z,16.00
2022-10-15T17:49:31.608Z,16.00
2022-10-15T17:51:59.802Z,16.00
2022-10-15T17:54:27.877Z,16.00
2022-10-15T17:56:56.064Z,15.90
2022-10-15T17:59:25.551Z,15.90
2022-10-15T18:01:58.437Z,15.90
2022-10-15T18:04:28.161Z,15.90
2022-10-15T18:06:56.259Z,16.00
2022-10-15T18:09:28.655Z,15.90
2022-10-15T18:12:01.635Z,15.90
2022-10-15T18:14:33.462Z,15.90
2022-10-15T18:17:01.877Z,15.90
2022-10-15T18:19:30.640Z,15.90
2022-10-15T18:21:58.787Z,15.90
2022-10-15T18:24:27.167Z,15.90
2022-10-15T18:26:55.330Z,15.90
2022-10-15T18:29:25.219Z,15.90
2022-10-15T18:31:57.987Z,16.00
2022-10-15T18:34:28.707Z,16.00
2022-10-15T18:36:57.360Z,16.00
2022-10-15T18:39:27.723Z,16.00
2022-10-15T18:41:56.419Z,16.00
2022-10-15T18:44:25.429Z,16.00
2022-10-15T18:46:54.876Z,16.10
2022-10-15T18:49:23.056Z,16.00
2022-10-15T18:51:53.067Z,16.00
2022-10-15T18:54:22.877Z,16.10
2022-10-15T18:56:52.532Z,16.10
2022-10-15T18:59:21.557Z,16.10
2022-10-15T19:01:50.725Z,16.10
2022-10-15T19:04:23.917Z,16.10
2022-10-15T19:06:54.487Z,16.10
2022-10-15T19:09:25.981Z,16.10
2022-10-15T19:11:56.881Z,16.10
2022-10-15T19:14:28.961Z,16.10
2022-10-15T19:16:57.988Z,16.10
2022-10-15T19:19:29.640Z,16.10
2022-10-15T19:21:59.264Z,16.10
2022-10-15T19:24:27.690Z,16.00
2022-10-15T19:26:55.914Z,16.00
2022-10-15T19:29:24.239Z,16.00
2022-10-15T19:31:53.995Z,16.10
2022-10-15T19:34:23.164Z,16.00
2022-10-15T19:36:55.941Z,16.00
2022-10-15T19:39:25.338Z,16.00
2022-10-15T19:41:54.818Z,16.00
2022-10-15T19:44:25.674Z,16.00
2022-10-15T19:46:55.329Z,16.00
2022-10-15T19:49:23.964Z,16.00
2022-10-15T19:51:55.424Z,16.00
2022-10-15T19:54:29.167Z,16.00
2022-10-15T19:56:57.397Z,16.00
2022-10-15T19:59:25.556Z,15.90
2022-10-15T20:01:54.727Z,16.00
2022-10-15T20:04:22.872Z,15.90
2022-10-15T20:06:52.875Z,16.00
2022-10-15T20:09:22.418Z,16.10
2022-10-15T20:11:50.652Z,16.10
2022-10-15T20:14:18.844Z,16.10
2022-10-15T20:16:47.016Z,16.00
2022-10-15T20:19:15.330Z,16.10
2022-10-15T20:21:43.648Z,16.10
2022-10-15T20:24:12.816Z,16.00
2022-10-15T20:26:42.274Z,16.00
2022-10-15T20:29:10.567Z,16.00
2022-10-15T20:31:38.702Z,16.00
2022-10-15T20:34:06.871Z,16.00
2022-10-15T20:36:35.125Z,16.00
2022-10-15T20:39:03.616Z,16.00
2022-10-15T20:41:33.047Z,16.00
2022-10-15T20:44:02.668Z,16.00
2022-10-15T20:46:34.920Z,16.00
2022-10-15T20:49:09.186Z,16.00
2022-10-15T20:51:41.473Z,16.00
2022-10-15T20:54:12.854Z,16.00
2022-10-15T20:56:42.684Z,16.00
2022-10-15T20:59:12.986Z,16.00
2022-10-15T21:01:41.324Z,16.00
2022-10-15T21:04:09.522Z,15.90
2022-10-15T21:06:37.898Z,15.90
2022-10-15T21:09:06.305Z,15.80
2022-10-15T21:11:34.454Z,15.80
2022-10-15T21:14:02.697Z,15.80
2022-10-15T21:19:05.645Z,15.80
2022-10-15T21:21:33.839Z,15.70
2022-10-15T21:24:02.156Z,15.70
2022-10-15T21:26:30.354Z,15.70
2022-10-15T21:29:01.040Z,15.70
2022-10-15T21:31:30.932Z,15.70
2022-10-15T21:33:59.048Z,15.60
2022-10-15T21:36:28.962Z,15.60
2022-10-15T21:39:01.309Z,15.60
2022-10-15T21:41:33.377Z,15.60
2022-10-15T21:44:03.947Z,15.60
2022-10-15T21:46:33.971Z,15.60
2022-10-15T21:49:03.995Z,15.60
2022-10-15T21:51:34.236Z,15.60
2022-10-15T21:54:05.057Z,15.60
2022-10-15T21:56:34.615Z,15.60
2022-10-15T21:59:03.354Z,15.60
2022-10-15T22:01:36.157Z,15.60
2022-10-15T22:04:07.756Z,15.40
2022-10-15T22:06:37.090Z,15.40
2022-10-15T22:09:05.935Z,15.30
2022-10-15T22:11:37.864Z,15.30
2022-10-15T22:14:11.777Z,15.30
2022-10-15T22:16:42.175Z,15.20
2022-10-15T22:19:15.125Z,15.10
2022-10-15T22:21:43.760Z,15.10
2022-10-15T22:24:15.091Z,15.10
2022-10-15T22:26:45.698Z,15.10
2022-10-15T22:29:20.457Z,15.10
2022-10-15T22:31:51.057Z,15.10
2022-10-15T22:34:21.692Z,15.00
2022-10-15T22:36:51.033Z,15.00
2022-10-15T22:39:20.373Z,15.00
2022-10-15T22:41:49.745Z,15.00
2022-10-15T22:44:21.007Z,14.90
2022-10-15T22:46:51.371Z,14.90
2022-10-15T22:49:23.038Z,14.90
2022-10-15T22:51:52.522Z,14.90
2022-10-15T22:54:22.858Z,14.90
2022-10-15T22:56:52.768Z,15.00
2022-10-15T22:59:21.894Z,15.00
2022-10-15T23:01:51.645Z,15.00
2022-10-15T23:04:19.941Z,14.90
2022-10-15T23:06:48.104Z,14.90
2022-10-15T23:09:17.803Z,14.90
2022-10-15T23:11:47.095Z,14.90
2022-10-15T23:14:17.883Z,14.90
2022-10-15T23:16:48.629Z,14.80
2022-10-15T23:19:21.388Z,14.80
2022-10-15T23:21:52.783Z,14.70
2022-10-15T23:24:23.496Z,14.70
2022-10-15T23:26:52.445Z,14.60
2022-10-15T23:29:24.088Z,14.60
2022-10-15T23:31:52.986Z,14.70
2022-10-15T23:34:24.970Z,14.70
2022-10-15T23:36:54.752Z,14.60
2022-10-15T23:39:27.738Z,14.60
2022-10-15T23:41:56.490Z,14.60
2022-10-15T23:44:26.619Z,14.60
2022-10-15T23:46:55.238Z,14.60
2022-10-15T23:49:24.739Z,14.60
2022-10-15T23:51:53.279Z,14.50
2022-10-15T23:54:21.493Z,14.50
2022-10-15T23:56:49.677Z,14.50
2022-10-15T23:59:18.239Z,14.50
